Rubikon 4 — PD2321 — position and weather

sailwx.info

Track history (hours):
 
Tides and Currents Weather Stations Pressure Air Temp Water Temp Dewpoint Dewpoint Depression Visibility Wind Speed Wind Dir Waves Ship Positions

Rubikon 4

Last reported at 2017-Dec-15 10:12 UTC. Time now 2017-Dec-18 20:51 UTC.
Position N 43°45' E 023°58'.

Length 86 m; draft 1.7 m.

Type: Tanker. MMSI: 244660318.

Date/timePositionNaut miles runAvg speedWind from/ knotsBaromVisibWave heightAir tempDewpointWater temp
2017-Dec-15 10:12N 43°45' E 023°58'3 9.0
2017-Dec-15 09:52N 43°45' E 023°54'410.0
2017-Dec-15 09:30N 43°46' E 023°49'4 9.1
2017-Dec-15 09:00N 43°48' E 023°44'5 9.1
2017-Dec-15 08:30N 43°47' E 023°38'5 9.3
2017-Dec-15 08:00N 43°49' E 023°32'5 9.3
2017-Dec-15 07:30N 43°51' E 023°26'5 9.3
2017-Dec-15 07:00N 43°51' E 023°20'5 9.2
2017-Dec-15 06:30N 43°50' E 023°13'5 9.5
2017-Dec-15 06:00N 43°48' E 023°07'5 9.6
2017-Dec-15 05:30N 43°48' E 023°01'5 9.4
2017-Dec-15 05:00N 43°50' E 022°54'4 8.4
2017-Dec-15 04:30N 43°53' E 022°50'5 9.1
2017-Dec-15 03:59N 43°57' E 022°52'10 6.8
2017-Dec-15 02:30N 44°06' E 023°00'14 9.2
2017-Dec-15 01:00N 44°12' E 022°43'4 7.2
2017-Dec-15 00:30N 44°15' E 022°41'25 4.2
2017-Dec-14 18:31N 44°40' E 022°32'0 0.4
2017-Dec-14 18:00N 44°40' E 022°31'0 0.1
2017-Dec-14 17:30N 44°40' E 022°31'0 0.0
2017-Dec-14 17:00N 44°40' E 022°31'1 1.8
2017-Dec-14 16:30N 44°41' E 022°30'1 1.2
2017-Dec-14 16:00N 44°41' E 022°30'0 0.0
2017-Dec-14 15:00N 44°41' E 022°30'0 0.0
2017-Dec-14 14:30N 44°41' E 022°30'0 0.0
2017-Dec-14 14:00N 44°41' E 022°30'0 0.0
2017-Dec-14 13:30N 44°41' E 022°30'0 0.0
2017-Dec-14 13:00N 44°41' E 022°30'0 0.0
2017-Dec-14 12:30N 44°41' E 022°30'0 0.0
2017-Dec-14 12:00N 44°41' E 022°30'0 0.0
2017-Dec-14 11:30N 44°41' E 022°30'0 0.0
2017-Dec-14 11:00N 44°41' E 022°30'0 0.0
2017-Dec-14 10:30N 44°41' E 022°30'0 0.0
2017-Dec-14 10:00N 44°41' E 022°30'0 0.0
2017-Dec-14 09:30N 44°41' E 022°30'1 1.2
2017-Dec-14 09:00N 44°42' E 022°29'3 6.9
2017-Dec-14 08:30N 44°42' E 022°25'4 7.9
2017-Dec-14 08:00N 44°40' E 022°20'7 8.5
2017-Dec-14 07:07N 44°34' E 022°14'3 8.4
2017-Dec-14 06:43N 44°31' E 022°12'2 8.4
2017-Dec-14 06:30N 44°29' E 022°11'4 7.1
2017-Dec-14 06:00N 44°29' E 022°06'4 8.1
2017-Dec-14 05:30N 44°32' E 022°03'4 7.9
2017-Dec-14 05:00N 44°36' E 022°01'13 8.8
2017-Dec-14 03:29N 44°40' E 021°42'3 5.9
2017-Dec-14 02:58N 44°41' E 021°39'4 8.3
2017-Dec-14 02:30N 44°45' E 021°36'4 1.9
2017-Dec-14 00:28N 44°46' E 021°31'3 6.6
2017-Dec-14 00:00N 44°46' E 021°27'8 6.9
2017-Dec-13 22:54N 44°48' E 021°16'3 8.6
2017-Dec-13 22:30N 44°46' E 021°12'4 8.8
2017-Dec-13 22:00N 44°44' E 021°07'4 8.6
2017-Dec-13 21:30N 44°43' E 021°01'4 8.4
2017-Dec-13 21:00N 44°41' E 020°56'4 8.5
2017-Dec-13 20:30N 44°39' E 020°50'4 8.7
2017-Dec-13 20:00N 44°40' E 020°44'4 8.6
2017-Dec-13 19:30N 44°44' E 020°41'4 8.0
2017-Dec-13 19:00N 44°47' E 020°38'4 8.0
2017-Dec-13 18:30N 44°51' E 020°38'4 8.3
2017-Dec-13 18:00N 44°50' E 020°32'4 8.3
2017-Dec-13 17:30N 44°50' E 020°26'4 8.4
2017-Dec-13 17:00N 44°53' E 020°21'4 8.5
2017-Dec-13 16:30N 44°56' E 020°18'3 7.0
2017-Dec-13 16:00N 44°60' E 020°19'3 6.9
2017-Dec-13 15:30N 45°03' E 020°21'5 8.7
2017-Dec-13 14:59N 45°07' E 020°18'4 8.4
2017-Dec-13 14:30N 45°10' E 020°14'5 7.3
2017-Dec-13 13:52N 45°10' E 020°07'3 9.3
2017-Dec-13 13:30N 45°10' E 020°03'5 7.9
2017-Dec-13 12:54N 45°12' E 019°57'510.9
2017-Dec-13 12:29N 45°16' E 019°52'3 6.2
2017-Dec-13 11:59N 45°13' E 019°50'4 7.8
2017-Dec-13 11:28N 45°14' E 019°44'7 8.5
2017-Dec-13 10:39N 45°13' E 019°34'210.8
2017-Dec-13 10:30N 45°15' E 019°33'4 7.5
2017-Dec-13 10:00N 45°14' E 019°28'4 8.9
2017-Dec-13 09:30N 45°14' E 019°22'5 8.9
2017-Dec-13 08:58N 45°15' E 019°15'4 9.2
2017-Dec-13 08:29N 45°17' E 019°10'4 7.9
2017-Dec-13 08:00N 45°19' E 019°06'4 8.3
2017-Dec-13 07:30N 45°21' E 019°01'3 5.9
2017-Dec-13 07:00N 45°24' E 018°60'3 5.2
2017-Dec-13 06:30N 45°27' E 018°59'3 6.3
2017-Dec-13 06:00N 45°29' E 019°01'4 7.1
2017-Dec-13 05:30N 45°31' E 019°06'4 8.0
2017-Dec-13 05:00N 45°33' E 019°02'4 7.6
2017-Dec-13 04:30N 45°32' E 018°56'3 6.6
2017-Dec-13 04:00N 45°35' E 018°54'4 7.5
2017-Dec-13 03:30N 45°39' E 018°57'3 6.1
2017-Dec-13 03:00N 45°42' E 018°55'4 8.9
2017-Dec-13 02:30N 45°46' E 018°53'4 7.7
2017-Dec-13 02:00N 45°49' E 018°51'1 2.8
2017-Dec-13 01:29N 45°51' E 018°52'0 0.0
2017-Dec-13 01:00N 45°51' E 018°52'1 1.5
2017-Dec-13 00:30N 45°52' E 018°51'86 6.5
2017-Dec-12 11:18N 47°17' E 018°55'0 0.0
2017-Dec-12 11:00N 47°17' E 018°55'0 0.0
2017-Dec-12 10:29N 47°17' E 018°55'0 0.0
2017-Dec-12 10:00N 47°17' E 018°55'0 0.0
2017-Dec-12 09:24N 47°17' E 018°55'0 0.0
2017-Dec-12 08:56N 47°17' E 018°55'0 0.0
2017-Dec-12 08:29N 47°17' E 018°55'0 0.0
2017-Dec-12 07:58N 47°17' E 018°55'0 0.0
2017-Dec-12 07:23N 47°17' E 018°55'0 0.0
2017-Dec-12 06:59N 47°17' E 018°55'0 0.0
2017-Dec-12 06:28N 47°17' E 018°55'0 0.0
2017-Dec-12 06:00N 47°17' E 018°55'0 0.0
2017-Dec-12 05:30N 47°17' E 018°55'0 0.0
2017-Dec-12 04:58N 47°17' E 018°55'0 0.0
2017-Dec-12 04:30N 47°17' E 018°55'0 0.0
2017-Dec-12 04:00N 47°17' E 018°55'0 0.0
2017-Dec-12 03:30N 47°17' E 018°55'0 0.0
2017-Dec-12 03:00N 47°17' E 018°55'0 0.0
2017-Dec-12 02:30N 47°17' E 018°55'0 0.0
2017-Dec-12 02:00N 47°17' E 018°55'0 0.0
2017-Dec-12 01:30N 47°17' E 018°55'0 0.0
2017-Dec-12 01:00N 47°17' E 018°55'0 0.0
2017-Dec-12 00:28N 47°17' E 018°55'0 0.0
2017-Dec-11 23:58N 47°17' E 018°55'0 0.0
2017-Dec-11 23:30N 47°17' E 018°55'0 0.0
2017-Dec-11 22:59N 47°17' E 018°55'0 0.0
2017-Dec-11 22:29N 47°17' E 018°55'0 0.0
2017-Dec-11 21:44N 47°17' E 018°55'0 0.0
2017-Dec-11 21:25N 47°17' E 018°55'0 0.0
2017-Dec-11 21:00N 47°17' E 018°55'0 0.0
2017-Dec-11 20:02N 47°17' E 018°55'0 0.1
2017-Dec-11 19:56N 47°17' E 018°55'0 0.0
2017-Dec-11 19:25N 47°17' E 018°55'0 0.0
2017-Dec-11 19:00N 47°17' E 018°55'0 0.0
2017-Dec-11 18:24N 47°17' E 018°55'0 0.0
2017-Dec-11 17:53N 47°17' E 018°55'0 0.0
2017-Dec-11 17:16N 47°17' E 018°55'0 0.0
2017-Dec-11 16:48N 47°17' E 018°55'0 0.0
2017-Dec-11 16:16N 47°17' E 018°55'0 0.0
2017-Dec-11 16:00N 47°17' E 018°55'0 0.0
2017-Dec-11 15:27N 47°17' E 018°55'0 0.0
2017-Dec-11 15:00N 47°17' E 018°55'0 0.0
2017-Dec-11 14:29N 47°17' E 018°55'0 0.0
2017-Dec-11 09:02N 47°17' E 018°55'1 1.6
2017-Dec-11 08:35N 47°17' E 018°55'77 4.5
2017-Dec-10 15:30N 46°00' E 018°41'4 3.9
2017-Dec-10 14:26N 45°58' E 018°46'3 6.1
2017-Dec-10 13:56N 45°55' E 018°48'3 5.9
2017-Dec-10 13:30N 45°53' E 018°50'2 4.3
2017-Dec-10 12:57N 45°51' E 018°52'0 0.0
2017-Dec-10 11:52N 45°51' E 018°52'0 0.0
2017-Dec-10 11:30N 45°51' E 018°52'0 0.0
2017-Dec-10 11:00N 45°51' E 018°52'0 0.0
2017-Dec-10 10:30N 45°51' E 018°52'0 0.0
2017-Dec-10 09:41N 45°51' E 018°52'1 3.3
2017-Dec-10 09:29N 45°50' E 018°51'3 6.0
2017-Dec-10 09:00N 45°47' E 018°51'3 5.4
2017-Dec-10 08:30N 45°45' E 018°54'3 6.2
2017-Dec-10 08:00N 45°42' E 018°55'3 6.0
2017-Dec-10 07:30N 45°40' E 018°58'3 5.9
2017-Dec-10 07:00N 45°38' E 018°56'3 5.1
2017-Dec-10 06:30N 45°35' E 018°54'2 4.6
2017-Dec-10 06:00N 45°33' E 018°55'3 5.5
2017-Dec-10 05:30N 45°32' E 018°59'2 4.2
2017-Dec-10 05:01N 45°33' E 019°02'3 5.5
2017-Dec-10 04:30N 45°31' E 019°05'2 4.6
2017-Dec-10 04:00N 45°29' E 019°05'3 6.0
2017-Dec-10 03:30N 45°30' E 019°00'3 5.8
2017-Dec-10 03:00N 45°27' E 018°59'3 5.8
2017-Dec-10 02:30N 45°25' E 019°02'3 5.6
2017-Dec-10 02:00N 45°24' E 018°58'3 5.7
2017-Dec-10 01:30N 45°21' E 019°01'3 5.9
2017-Dec-10 01:00N 45°21' E 019°05'3 5.5
2017-Dec-10 00:30N 45°18' E 019°06'3 6.0
2017-Dec-10 00:00N 45°17' E 019°10'3 5.9
2017-Dec-09 23:29N 45°15' E 019°14'3 5.7
2017-Dec-09 23:00N 45°14' E 019°18'3 6.2
2017-Dec-09 22:30N 45°14' E 019°22'3 6.1
2017-Dec-09 22:01N 45°14' E 019°26'10 5.1
2017-Dec-09 20:08N 45°13' E 019°40'1 6.1
2017-Dec-09 20:00N 45°14' E 019°41'3 6.0
2017-Dec-09 19:30N 45°14' E 019°45'9 4.6
2017-Dec-09 17:27N 45°11' E 019°58'3 6.3
2017-Dec-09 17:00N 45°10' E 020°02'3 6.2
2017-Dec-09 16:29N 45°10' E 020°06'3 6.2
2017-Dec-09 16:00N 45°11' E 020°10'3 6.2
2017-Dec-09 15:30N 45°10' E 020°14'3 5.2
2017-Dec-09 15:00N 45°08' E 020°17'3 5.2
2017-Dec-09 14:30N 45°06' E 020°18'3 6.2
2017-Dec-09 14:00N 45°03' E 020°21'3 5.6
2017-Dec-09 13:30N 45°00' E 020°21'3 5.9
2017-Dec-09 13:00N 44°59' E 020°18'3 6.1
2017-Dec-09 12:30N 44°56' E 020°19'3 6.1
2017-Dec-09 12:00N 44°53' E 020°21'3 6.0
2017-Dec-09 11:30N 44°51' E 020°24'3 6.3
2017-Dec-09 11:00N 44°50' E 020°28'0 0.4
2017-Dec-09 10:30N 44°50' E 020°28'0 0.5
2017-Dec-09 10:00N 44°50' E 020°29'3 5.0
2017-Dec-09 09:30N 44°50' E 020°32'3 6.0
2017-Dec-09 09:00N 44°51' E 020°36'3 5.3
2017-Dec-09 08:30N 44°50' E 020°39'3 6.3
2017-Dec-09 07:59N 44°46' E 020°38'3 6.0
2017-Dec-09 07:30N 44°44' E 020°40'3 6.2
2017-Dec-09 07:00N 44°42' E 020°43'5 5.9
2017-Dec-09 06:05N 44°40' E 020°50'1 6.4
2017-Dec-09 05:52N 44°40' E 020°52'4 6.2
2017-Dec-09 05:15N 44°41' E 020°57'2 6.5
2017-Dec-09 04:59N 44°43' E 020°59'3 6.4
2017-Dec-09 04:30N 44°43' E 021°03'20 4.1
2017-Dec-08 23:32N 44°46' E 021°31'3 5.4
2017-Dec-08 23:03N 44°46' E 021°35'1 6.6
2017-Dec-08 22:54N 44°45' E 021°36'4 6.5
2017-Dec-08 22:18N 44°42' E 021°39'16 6.1
2017-Dec-08 19:36N 44°36' E 022°01'1 6.8
2017-Dec-08 19:30N 44°36' E 022°01'3 6.7
2017-Dec-08 19:00N 44°33' E 022°03'3 6.8
2017-Dec-08 18:30N 44°30' E 022°05'4 7.2
2017-Dec-08 18:00N 44°28' E 022°10'5 7.2
2017-Dec-08 17:15N 44°33' E 022°14'6 6.8
2017-Dec-08 16:25N 44°38' E 022°17'3 6.5
2017-Dec-08 16:00N 44°40' E 022°20'4 7.4
2017-Dec-08 15:30N 44°42' E 022°24'3 6.5
2017-Dec-08 15:00N 44°42' E 022°29'3 5.5
2017-Dec-08 14:30N 44°40' E 022°31'0 0.0
2017-Dec-08 14:00N 44°40' E 022°31'0 0.3
2017-Dec-08 13:30N 44°40' E 022°32'0 0.0
2017-Dec-08 13:00N 44°40' E 022°32'0 0.0
2017-Dec-08 12:30N 44°40' E 022°32'0 0.4
2017-Dec-08 12:00N 44°40' E 022°32'0 0.3
2017-Dec-08 11:30N 44°40' E 022°32'0 0.0
2017-Dec-08 11:00N 44°40' E 022°32'0 0.0
2017-Dec-08 10:30N 44°40' E 022°32'0 0.0
2017-Dec-08 10:00N 44°40' E 022°32'1 2.7
2017-Dec-08 09:30N 44°39' E 022°33'3 6.4
2017-Dec-08 09:00N 44°37' E 022°37'1 1.0
2017-Dec-08 08:30N 44°37' E 022°38'0 0.0
2017-Dec-08 07:58N 44°37' E 022°38'0 0.0
2017-Dec-08 07:30N 44°37' E 022°38'0 0.0
2017-Dec-08 07:00N 44°37' E 022°38'0 0.0
2017-Dec-08 06:30N 44°37' E 022°38'3 5.4
2017-Dec-08 06:01N 44°37' E 022°42'3 6.7
2017-Dec-08 05:30N 44°34' E 022°45'3 5.3
2017-Dec-08 05:00N 44°32' E 022°44'3 6.2
2017-Dec-08 04:30N 44°32' E 022°40'3 6.8
2017-Dec-08 04:00N 44°33' E 022°35'25 4.2
2017-Dec-07 22:01N 44°10' E 022°48'0 6.7
2017-Dec-07 22:00N 44°09' E 022°48'3 6.1
2017-Dec-07 21:30N 44°08' E 022°52'3 6.0
2017-Dec-07 21:00N 44°06' E 022°55'3 5.9
2017-Dec-07 20:30N 44°06' E 022°59'3 5.9
2017-Dec-07 20:01N 44°04' E 023°03'3 5.7
2017-Dec-07 19:30N 44°02' E 023°01'3 5.7
2017-Dec-07 19:00N 44°00' E 022°58'3 6.0
2017-Dec-07 18:30N 43°60' E 022°54'3 5.8
2017-Dec-07 18:00N 43°57' E 022°52'3 6.2
2017-Dec-07 17:30N 43°54' E 022°51'3 6.0
2017-Dec-07 17:00N 43°51' E 022°51'3 6.0
2017-Dec-07 16:30N 43°50' E 022°55'3 5.9
2017-Dec-07 16:00N 43°49' E 022°59'3 6.6
2017-Dec-07 15:29N 43°48' E 023°04'3 6.1
2017-Dec-07 14:57N 43°48' E 023°08'3 5.8
2017-Dec-07 14:21N 43°50' E 023°12'2 6.0
2017-Dec-07 14:00N 43°50' E 023°15'  
Track history (hours):
 
Tides and Currents Weather Stations Pressure Air Temp Water Temp Dewpoint Dewpoint Depression Visibility Wind Speed Wind Dir Waves Ship Positions

Rubikon 4

Last reported at 2017-Dec-15 10:12 UTC. Time now 2017-Dec-18 20:51 UTC.
Position N 43°45' E 023°58'.

Length 86 m; draft 1.7 m.

Type: Tanker. MMSI: 244660318.

Date/timePositionNaut miles runAvg speedWind from/ knotsBaromVisibWave heightAir tempDewpointWater temp
2017-Dec-15 10:12N 43°45' E 023°58'3 9.0
2017-Dec-15 09:52N 43°45' E 023°54'410.0
2017-Dec-15 09:30N 43°46' E 023°49'4 9.1
2017-Dec-15 09:00N 43°48' E 023°44'5 9.1
2017-Dec-15 08:30N 43°47' E 023°38'5 9.3
2017-Dec-15 08:00N 43°49' E 023°32'5 9.3
2017-Dec-15 07:30N 43°51' E 023°26'5 9.3
2017-Dec-15 07:00N 43°51' E 023°20'5 9.2
2017-Dec-15 06:30N 43°50' E 023°13'5 9.5
2017-Dec-15 06:00N 43°48' E 023°07'5 9.6
2017-Dec-15 05:30N 43°48' E 023°01'5 9.4
2017-Dec-15 05:00N 43°50' E 022°54'4 8.4
2017-Dec-15 04:30N 43°53' E 022°50'5 9.1
2017-Dec-15 03:59N 43°57' E 022°52'10 6.8
2017-Dec-15 02:30N 44°06' E 023°00'14 9.2
2017-Dec-15 01:00N 44°12' E 022°43'4 7.2
2017-Dec-15 00:30N 44°15' E 022°41'25 4.2
2017-Dec-14 18:31N 44°40' E 022°32'0 0.4
2017-Dec-14 18:00N 44°40' E 022°31'0 0.1
2017-Dec-14 17:30N 44°40' E 022°31'0 0.0
2017-Dec-14 17:00N 44°40' E 022°31'1 1.8
2017-Dec-14 16:30N 44°41' E 022°30'1 1.2
2017-Dec-14 16:00N 44°41' E 022°30'0 0.0
2017-Dec-14 15:00N 44°41' E 022°30'0 0.0
2017-Dec-14 14:30N 44°41' E 022°30'0 0.0
2017-Dec-14 14:00N 44°41' E 022°30'0 0.0
2017-Dec-14 13:30N 44°41' E 022°30'0 0.0
2017-Dec-14 13:00N 44°41' E 022°30'0 0.0
2017-Dec-14 12:30N 44°41' E 022°30'0 0.0
2017-Dec-14 12:00N 44°41' E 022°30'0 0.0
2017-Dec-14 11:30N 44°41' E 022°30'0 0.0
2017-Dec-14 11:00N 44°41' E 022°30'0 0.0
2017-Dec-14 10:30N 44°41' E 022°30'0 0.0
2017-Dec-14 10:00N 44°41' E 022°30'0 0.0
2017-Dec-14 09:30N 44°41' E 022°30'1 1.2
2017-Dec-14 09:00N 44°42' E 022°29'3 6.9
2017-Dec-14 08:30N 44°42' E 022°25'4 7.9
2017-Dec-14 08:00N 44°40' E 022°20'7 8.5
2017-Dec-14 07:07N 44°34' E 022°14'3 8.4
2017-Dec-14 06:43N 44°31' E 022°12'2 8.4
2017-Dec-14 06:30N 44°29' E 022°11'4 7.1
2017-Dec-14 06:00N 44°29' E 022°06'4 8.1
2017-Dec-14 05:30N 44°32' E 022°03'4 7.9
2017-Dec-14 05:00N 44°36' E 022°01'13 8.8
2017-Dec-14 03:29N 44°40' E 021°42'3 5.9
2017-Dec-14 02:58N 44°41' E 021°39'4 8.3
2017-Dec-14 02:30N 44°45' E 021°36'4 1.9
2017-Dec-14 00:28N 44°46' E 021°31'3 6.6
2017-Dec-14 00:00N 44°46' E 021°27'8 6.9
2017-Dec-13 22:54N 44°48' E 021°16'3 8.6
2017-Dec-13 22:30N 44°46' E 021°12'4 8.8
2017-Dec-13 22:00N 44°44' E 021°07'4 8.6
2017-Dec-13 21:30N 44°43' E 021°01'4 8.4
2017-Dec-13 21:00N 44°41' E 020°56'4 8.5
2017-Dec-13 20:30N 44°39' E 020°50'4 8.7
2017-Dec-13 20:00N 44°40' E 020°44'4 8.6
2017-Dec-13 19:30N 44°44' E 020°41'4 8.0
2017-Dec-13 19:00N 44°47' E 020°38'4 8.0
2017-Dec-13 18:30N 44°51' E 020°38'4 8.3
2017-Dec-13 18:00N 44°50' E 020°32'4 8.3
2017-Dec-13 17:30N 44°50' E 020°26'4 8.4
2017-Dec-13 17:00N 44°53' E 020°21'4 8.5
2017-Dec-13 16:30N 44°56' E 020°18'3 7.0
2017-Dec-13 16:00N 44°60' E 020°19'3 6.9
2017-Dec-13 15:30N 45°03' E 020°21'5 8.7
2017-Dec-13 14:59N 45°07' E 020°18'4 8.4
2017-Dec-13 14:30N 45°10' E 020°14'5 7.3
2017-Dec-13 13:52N 45°10' E 020°07'3 9.3
2017-Dec-13 13:30N 45°10' E 020°03'5 7.9
2017-Dec-13 12:54N 45°12' E 019°57'510.9
2017-Dec-13 12:29N 45°16' E 019°52'3 6.2
2017-Dec-13 11:59N 45°13' E 019°50'4 7.8
2017-Dec-13 11:28N 45°14' E 019°44'7 8.5
2017-Dec-13 10:39N 45°13' E 019°34'210.8
2017-Dec-13 10:30N 45°15' E 019°33'4 7.5
2017-Dec-13 10:00N 45°14' E 019°28'4 8.9
2017-Dec-13 09:30N 45°14' E 019°22'5 8.9
2017-Dec-13 08:58N 45°15' E 019°15'4 9.2
2017-Dec-13 08:29N 45°17' E 019°10'4 7.9
2017-Dec-13 08:00N 45°19' E 019°06'4 8.3
2017-Dec-13 07:30N 45°21' E 019°01'3 5.9
2017-Dec-13 07:00N 45°24' E 018°60'3 5.2
2017-Dec-13 06:30N 45°27' E 018°59'3 6.3
2017-Dec-13 06:00N 45°29' E 019°01'4 7.1
2017-Dec-13 05:30N 45°31' E 019°06'4 8.0
2017-Dec-13 05:00N 45°33' E 019°02'4 7.6
2017-Dec-13 04:30N 45°32' E 018°56'3 6.6
2017-Dec-13 04:00N 45°35' E 018°54'4 7.5
2017-Dec-13 03:30N 45°39' E 018°57'3 6.1
2017-Dec-13 03:00N 45°42' E 018°55'4 8.9
2017-Dec-13 02:30N 45°46' E 018°53'4 7.7
2017-Dec-13 02:00N 45°49' E 018°51'1 2.8
2017-Dec-13 01:29N 45°51' E 018°52'0 0.0
2017-Dec-13 01:00N 45°51' E 018°52'1 1.5
2017-Dec-13 00:30N 45°52' E 018°51'86 6.5
2017-Dec-12 11:18N 47°17' E 018°55'0 0.0
2017-Dec-12 11:00N 47°17' E 018°55'0 0.0
2017-Dec-12 10:29N 47°17' E 018°55'0 0.0
2017-Dec-12 10:00N 47°17' E 018°55'0 0.0
2017-Dec-12 09:24N 47°17' E 018°55'0 0.0
2017-Dec-12 08:56N 47°17' E 018°55'0 0.0
2017-Dec-12 08:29N 47°17' E 018°55'0 0.0
2017-Dec-12 07:58N 47°17' E 018°55'0 0.0
2017-Dec-12 07:23N 47°17' E 018°55'0 0.0
2017-Dec-12 06:59N 47°17' E 018°55'0 0.0
2017-Dec-12 06:28N 47°17' E 018°55'0 0.0
2017-Dec-12 06:00N 47°17' E 018°55'0 0.0
2017-Dec-12 05:30N 47°17' E 018°55'0 0.0
2017-Dec-12 04:58N 47°17' E 018°55'0 0.0
2017-Dec-12 04:30N 47°17' E 018°55'0 0.0
2017-Dec-12 04:00N 47°17' E 018°55'0 0.0
2017-Dec-12 03:30N 47°17' E 018°55'0 0.0
2017-Dec-12 03:00N 47°17' E 018°55'0 0.0
2017-Dec-12 02:30N 47°17' E 018°55'0 0.0
2017-Dec-12 02:00N 47°17' E 018°55'0 0.0
2017-Dec-12 01:30N 47°17' E 018°55'0 0.0
2017-Dec-12 01:00N 47°17' E 018°55'0 0.0
2017-Dec-12 00:28N 47°17' E 018°55'0 0.0
2017-Dec-11 23:58N 47°17' E 018°55'0 0.0
2017-Dec-11 23:30N 47°17' E 018°55'0 0.0
2017-Dec-11 22:59N 47°17' E 018°55'0 0.0
2017-Dec-11 22:29N 47°17' E 018°55'0 0.0
2017-Dec-11 21:44N 47°17' E 018°55'0 0.0
2017-Dec-11 21:25N 47°17' E 018°55'0 0.0
2017-Dec-11 21:00N 47°17' E 018°55'0 0.0
2017-Dec-11 20:02N 47°17' E 018°55'0 0.1
2017-Dec-11 19:56N 47°17' E 018°55'0 0.0
2017-Dec-11 19:25N 47°17' E 018°55'0 0.0
2017-Dec-11 19:00N 47°17' E 018°55'0 0.0
2017-Dec-11 18:24N 47°17' E 018°55'0 0.0
2017-Dec-11 17:53N 47°17' E 018°55'0 0.0
2017-Dec-11 17:16N 47°17' E 018°55'0 0.0
2017-Dec-11 16:48N 47°17' E 018°55'0 0.0
2017-Dec-11 16:16N 47°17' E 018°55'0 0.0
2017-Dec-11 16:00N 47°17' E 018°55'0 0.0
2017-Dec-11 15:27N 47°17' E 018°55'0 0.0
2017-Dec-11 15:00N 47°17' E 018°55'0 0.0
2017-Dec-11 14:29N 47°17' E 018°55'0 0.0
2017-Dec-11 09:02N 47°17' E 018°55'1 1.6
2017-Dec-11 08:35N 47°17' E 018°55'77 4.5
2017-Dec-10 15:30N 46°00' E 018°41'4 3.9
2017-Dec-10 14:26N 45°58' E 018°46'3 6.1
2017-Dec-10 13:56N 45°55' E 018°48'3 5.9
2017-Dec-10 13:30N 45°53' E 018°50'2 4.3
2017-Dec-10 12:57N 45°51' E 018°52'0 0.0
2017-Dec-10 11:52N 45°51' E 018°52'0 0.0
2017-Dec-10 11:30N 45°51' E 018°52'0 0.0
2017-Dec-10 11:00N 45°51' E 018°52'0 0.0
2017-Dec-10 10:30N 45°51' E 018°52'0 0.0
2017-Dec-10 09:41N 45°51' E 018°52'1 3.3
2017-Dec-10 09:29N 45°50' E 018°51'3 6.0
2017-Dec-10 09:00N 45°47' E 018°51'3 5.4
2017-Dec-10 08:30N 45°45' E 018°54'3 6.2
2017-Dec-10 08:00N 45°42' E 018°55'3 6.0
2017-Dec-10 07:30N 45°40' E 018°58'3 5.9
2017-Dec-10 07:00N 45°38' E 018°56'3 5.1
2017-Dec-10 06:30N 45°35' E 018°54'2 4.6
2017-Dec-10 06:00N 45°33' E 018°55'3 5.5
2017-Dec-10 05:30N 45°32' E 018°59'2 4.2
2017-Dec-10 05:01N 45°33' E 019°02'3 5.5
2017-Dec-10 04:30N 45°31' E 019°05'2 4.6
2017-Dec-10 04:00N 45°29' E 019°05'3 6.0
2017-Dec-10 03:30N 45°30' E 019°00'3 5.8
2017-Dec-10 03:00N 45°27' E 018°59'3 5.8
2017-Dec-10 02:30N 45°25' E 019°02'3 5.6
2017-Dec-10 02:00N 45°24' E 018°58'3 5.7
2017-Dec-10 01:30N 45°21' E 019°01'3 5.9
2017-Dec-10 01:00N 45°21' E 019°05'3 5.5
2017-Dec-10 00:30N 45°18' E 019°06'3 6.0
2017-Dec-10 00:00N 45°17' E 019°10'3 5.9
2017-Dec-09 23:29N 45°15' E 019°14'3 5.7
2017-Dec-09 23:00N 45°14' E 019°18'3 6.2
2017-Dec-09 22:30N 45°14' E 019°22'3 6.1
2017-Dec-09 22:01N 45°14' E 019°26'10 5.1
2017-Dec-09 20:08N 45°13' E 019°40'1 6.1
2017-Dec-09 20:00N 45°14' E 019°41'3 6.0
2017-Dec-09 19:30N 45°14' E 019°45'9 4.6
2017-Dec-09 17:27N 45°11' E 019°58'3 6.3
2017-Dec-09 17:00N 45°10' E 020°02'3 6.2
2017-Dec-09 16:29N 45°10' E 020°06'3 6.2
2017-Dec-09 16:00N 45°11' E 020°10'3 6.2
2017-Dec-09 15:30N 45°10' E 020°14'3 5.2
2017-Dec-09 15:00N 45°08' E 020°17'3 5.2
2017-Dec-09 14:30N 45°06' E 020°18'3 6.2
2017-Dec-09 14:00N 45°03' E 020°21'3 5.6
2017-Dec-09 13:30N 45°00' E 020°21'3 5.9
2017-Dec-09 13:00N 44°59' E 020°18'3 6.1
2017-Dec-09 12:30N 44°56' E 020°19'3 6.1
2017-Dec-09 12:00N 44°53' E 020°21'3 6.0
2017-Dec-09 11:30N 44°51' E 020°24'3 6.3
2017-Dec-09 11:00N 44°50' E 020°28'0 0.4
2017-Dec-09 10:30N 44°50' E 020°28'0 0.5
2017-Dec-09 10:00N 44°50' E 020°29'3 5.0
2017-Dec-09 09:30N 44°50' E 020°32'3 6.0
2017-Dec-09 09:00N 44°51' E 020°36'3 5.3
2017-Dec-09 08:30N 44°50' E 020°39'3 6.3
2017-Dec-09 07:59N 44°46' E 020°38'3 6.0
2017-Dec-09 07:30N 44°44' E 020°40'3 6.2
2017-Dec-09 07:00N 44°42' E 020°43'5 5.9
2017-Dec-09 06:05N 44°40' E 020°50'1 6.4
2017-Dec-09 05:52N 44°40' E 020°52'4 6.2
2017-Dec-09 05:15N 44°41' E 020°57'2 6.5
2017-Dec-09 04:59N 44°43' E 020°59'3 6.4
2017-Dec-09 04:30N 44°43' E 021°03'20 4.1
2017-Dec-08 23:32N 44°46' E 021°31'3 5.4
2017-Dec-08 23:03N 44°46' E 021°35'1 6.6
2017-Dec-08 22:54N 44°45' E 021°36'4 6.5
2017-Dec-08 22:18N 44°42' E 021°39'16 6.1
2017-Dec-08 19:36N 44°36' E 022°01'1 6.8
2017-Dec-08 19:30N 44°36' E 022°01'3 6.7
2017-Dec-08 19:00N 44°33' E 022°03'3 6.8
2017-Dec-08 18:30N 44°30' E 022°05'4 7.2
2017-Dec-08 18:00N 44°28' E 022°10'5 7.2
2017-Dec-08 17:15N 44°33' E 022°14'6 6.8
2017-Dec-08 16:25N 44°38' E 022°17'3 6.5
2017-Dec-08 16:00N 44°40' E 022°20'4 7.4
2017-Dec-08 15:30N 44°42' E 022°24'3 6.5
2017-Dec-08 15:00N 44°42' E 022°29'3 5.5
2017-Dec-08 14:30N 44°40' E 022°31'0 0.0
2017-Dec-08 14:00N 44°40' E 022°31'0 0.3
2017-Dec-08 13:30N 44°40' E 022°32'0 0.0
2017-Dec-08 13:00N 44°40' E 022°32'0 0.0
2017-Dec-08 12:30N 44°40' E 022°32'0 0.4
2017-Dec-08 12:00N 44°40' E 022°32'0 0.3
2017-Dec-08 11:30N 44°40' E 022°32'0 0.0
2017-Dec-08 11:00N 44°40' E 022°32'0 0.0
2017-Dec-08 10:30N 44°40' E 022°32'0 0.0
2017-Dec-08 10:00N 44°40' E 022°32'1 2.7
2017-Dec-08 09:30N 44°39' E 022°33'3 6.4
2017-Dec-08 09:00N 44°37' E 022°37'1 1.0
2017-Dec-08 08:30N 44°37' E 022°38'0 0.0
2017-Dec-08 07:58N 44°37' E 022°38'0 0.0
2017-Dec-08 07:30N 44°37' E 022°38'0 0.0
2017-Dec-08 07:00N 44°37' E 022°38'0 0.0
2017-Dec-08 06:30N 44°37' E 022°38'3 5.4
2017-Dec-08 06:01N 44°37' E 022°42'3 6.7
2017-Dec-08 05:30N 44°34' E 022°45'3 5.3
2017-Dec-08 05:00N 44°32' E 022°44'3 6.2
2017-Dec-08 04:30N 44°32' E 022°40'3 6.8
2017-Dec-08 04:00N 44°33' E 022°35'25 4.2
2017-Dec-07 22:01N 44°10' E 022°48'0 6.7
2017-Dec-07 22:00N 44°09' E 022°48'3 6.1
2017-Dec-07 21:30N 44°08' E 022°52'3 6.0
2017-Dec-07 21:00N 44°06' E 022°55'3 5.9
2017-Dec-07 20:30N 44°06' E 022°59'3 5.9
2017-Dec-07 20:01N 44°04' E 023°03'3 5.7
2017-Dec-07 19:30N 44°02' E 023°01'3 5.7
2017-Dec-07 19:00N 44°00' E 022°58'3 6.0
2017-Dec-07 18:30N 43°60' E 022°54'3 5.8
2017-Dec-07 18:00N 43°57' E 022°52'3 6.2
2017-Dec-07 17:30N 43°54' E 022°51'3 6.0
2017-Dec-07 17:00N 43°51' E 022°51'3 6.0
2017-Dec-07 16:30N 43°50' E 022°55'3 5.9
2017-Dec-07 16:00N 43°49' E 022°59'3 6.6
2017-Dec-07 15:29N 43°48' E 023°04'3 6.1
2017-Dec-07 14:57N 43°48' E 023°08'3 5.8
2017-Dec-07 14:21N 43°50' E 023°12'2 6.0
2017-Dec-07 14:00N 43°50' E 023°15'  

Dump ship's entire track history